createdAt,value
2018-03-02T00:00:29.607Z,11.82
2018-03-02T00:01:30.078Z,11.83
2018-03-02T00:02:30.549Z,11.81
2018-03-02T00:04:31.491Z,11.79
2018-03-02T00:05:31.956Z,11.80
2018-03-02T00:06:32.432Z,11.78
2018-03-02T00:07:32.903Z,11.76
2018-03-02T00:08:33.374Z,11.76
2018-03-02T00:09:33.846Z,11.77
2018-03-02T00:10:34.317Z,11.78
2018-03-02T00:11:34.786Z,11.77
2018-03-02T00:12:35.257Z,11.79
2018-03-02T00:13:35.731Z,11.75
2018-03-02T00:14:36.200Z,11.74
2018-03-02T00:15:36.673Z,11.74
2018-03-02T00:16:37.137Z,11.75
2018-03-02T00:17:37.612Z,11.76
2018-03-02T00:18:38.083Z,11.77
2018-03-02T00:19:38.555Z,11.77
2018-03-02T00:20:39.025Z,11.77
2018-03-02T00:21:39.496Z,11.76
2018-03-02T00:22:39.972Z,11.74
2018-03-02T00:23:40.434Z,11.74
2018-03-02T00:24:40.913Z,11.72
2018-03-02T00:25:41.381Z,11.73
2018-03-02T00:26:41.854Z,11.75
2018-03-02T00:27:42.318Z,11.75
2018-03-02T00:28:54.879Z,11.76
2018-03-02T00:29:43.273Z,11.77
2018-03-02T00:30:43.736Z,11.77
2018-03-02T00:31:44.207Z,11.76
2018-03-02T00:32:44.677Z,11.78
2018-03-02T00:33:45.152Z,11.78
2018-03-02T00:34:45.616Z,11.80
2018-03-02T00:35:46.090Z,11.79
2018-03-02T00:36:46.560Z,11.80
2018-03-02T00:37:47.032Z,11.80
2018-03-02T00:38:47.497Z,11.79
2018-03-02T00:39:47.976Z,11.77
2018-03-02T00:40:48.444Z,11.80
2018-03-02T00:41:48.917Z,11.83
2018-03-02T00:42:49.387Z,11.80
2018-03-02T00:43:49.857Z,11.79
2018-03-02T00:44:50.328Z,11.79
2018-03-02T00:45:50.795Z,11.80
2018-03-02T00:46:51.269Z,11.80
2018-03-02T00:47:51.741Z,11.80
2018-03-02T00:48:52.212Z,11.81
2018-03-02T00:49:52.678Z,11.79
2018-03-02T00:50:53.155Z,11.79
2018-03-02T00:51:53.624Z,11.80
2018-03-02T00:52:54.098Z,11.80
2018-03-02T00:53:54.566Z,11.81
2018-03-02T00:54:55.037Z,11.79
2018-03-02T00:55:55.511Z,11.79
2018-03-02T00:56:55.974Z,11.78
2018-03-02T00:57:56.451Z,11.76
2018-03-02T00:58:56.921Z,11.76
2018-03-02T00:59:57.392Z,11.79
2018-03-02T01:00:57.863Z,11.80
2018-03-02T01:01:58.376Z,11.80
2018-03-02T01:02:58.804Z,11.79
2018-03-02T01:04:10.865Z,11.80
2018-03-02T01:04:59.747Z,11.77
2018-03-02T01:06:00.220Z,11.79
2018-03-02T01:07:00.725Z,11.79
2018-03-02T01:08:01.164Z,11.78
2018-03-02T01:09:13.920Z,11.80
2018-03-02T01:11:02.572Z,11.79
2018-03-02T01:12:03.044Z,11.78
2018-03-02T01:13:03.514Z,11.78
2018-03-02T01:14:03.985Z,11.79
2018-03-02T01:15:04.450Z,11.78
2018-03-02T01:16:04.930Z,11.78
2018-03-02T01:17:05.398Z,11.79
2018-03-02T01:18:05.869Z,11.82
2018-03-02T01:19:06.335Z,11.80
2018-03-02T01:20:06.811Z,11.80
2018-03-02T01:21:07.283Z,11.79
2018-03-02T01:22:07.755Z,11.80
2018-03-02T01:23:08.223Z,11.80
2018-03-02T01:25:09.166Z,11.81
2018-03-02T01:26:09.632Z,11.79
2018-03-02T01:27:10.107Z,11.81
2018-03-02T01:28:10.582Z,11.82
2018-03-02T01:29:11.050Z,11.81
2018-03-02T01:30:11.516Z,11.80
2018-03-02T01:31:11.991Z,11.81
2018-03-02T01:32:12.463Z,11.81
2018-03-02T01:33:12.933Z,11.81
2018-03-02T01:34:13.406Z,11.79
2018-03-02T01:35:13.878Z,11.80
2018-03-02T01:36:14.348Z,11.80
2018-03-02T01:37:14.816Z,11.82
2018-03-02T01:38:15.295Z,11.84
2018-03-02T01:39:15.810Z,11.83
2018-03-02T01:40:16.229Z,11.83
2018-03-02T01:41:16.701Z,11.84
2018-03-02T01:42:17.173Z,11.84
2018-03-02T01:43:17.647Z,11.85
2018-03-02T01:44:18.115Z,11.84
2018-03-02T01:45:18.589Z,11.84
2018-03-02T01:46:19.056Z,11.86
2018-03-02T01:47:19.530Z,11.88
2018-03-02T01:48:19.994Z,11.86
2018-03-02T01:49:31.898Z,11.87
2018-03-02T01:50:21.144Z,11.86
2018-03-02T01:51:21.412Z,11.85
2018-03-02T01:52:21.882Z,11.85
2018-03-02T01:53:22.355Z,11.83
2018-03-02T01:54:22.876Z,11.82
2018-03-02T01:55:23.295Z,11.82
2018-03-02T01:56:23.766Z,11.83
2018-03-02T01:57:24.246Z,11.83
2018-03-02T01:58:24.710Z,11.82
2018-03-02T01:59:25.174Z,11.84
2018-03-02T02:00:25.652Z,11.84
2018-03-02T02:01:26.122Z,11.86
2018-03-02T02:02:26.593Z,11.87
2018-03-02T02:03:27.063Z,11.86
2018-03-02T02:04:27.535Z,11.83
2018-03-02T02:05:28.006Z,11.85
2018-03-02T02:06:28.473Z,11.84
2018-03-02T02:07:28.946Z,11.84
2018-03-02T02:08:29.418Z,11.84
2018-03-02T02:09:29.940Z,11.84
2018-03-02T02:10:30.355Z,11.85
2018-03-02T02:11:30.830Z,11.83
2018-03-02T02:12:31.307Z,11.83
2018-03-02T02:13:31.778Z,11.83
2018-03-02T02:14:32.246Z,11.85
2018-03-02T02:15:32.716Z,11.83
2018-03-02T02:16:33.187Z,11.83
2018-03-02T02:17:33.653Z,11.83
2018-03-02T02:18:34.129Z,11.83
2018-03-02T02:19:34.601Z,11.87
2018-03-02T02:20:35.071Z,11.86
2018-03-02T02:21:35.537Z,11.85
2018-03-02T02:22:36.015Z,11.84
2018-03-02T02:23:36.484Z,11.83
2018-03-02T02:24:36.955Z,11.80
2018-03-02T02:26:37.898Z,11.82
2018-03-02T02:27:38.368Z,11.81
2018-03-02T02:28:38.834Z,11.80
2018-03-02T02:29:50.998Z,11.79
2018-03-02T02:30:39.782Z,11.79
2018-03-02T02:32:40.722Z,11.75
2018-03-02T02:33:41.196Z,11.76
2018-03-02T02:34:41.716Z,11.74
2018-03-02T02:35:42.477Z,11.72
2018-03-02T02:36:42.608Z,11.71
2018-03-02T02:37:43.080Z,11.72
2018-03-02T02:38:43.550Z,11.73
2018-03-02T02:39:44.025Z,11.73
2018-03-02T02:40:44.492Z,11.73
2018-03-02T02:41:44.964Z,11.70
2018-03-02T02:42:45.435Z,11.67
2018-03-02T02:43:45.903Z,11.65
2018-03-02T02:44:57.957Z,11.64
2018-03-02T02:45:46.846Z,11.66
2018-03-02T02:47:47.788Z,11.68
2018-03-02T02:48:48.260Z,11.66
2018-03-02T02:49:48.781Z,11.66
2018-03-02T02:50:49.197Z,11.66
2018-03-02T02:51:49.675Z,11.69
2018-03-02T02:52:50.144Z,11.70
2018-03-02T02:54:51.136Z,11.65
2018-03-02T02:55:51.557Z,11.63
2018-03-02T02:56:52.027Z,11.62
2018-03-02T02:57:52.493Z,11.62
2018-03-02T02:58:52.969Z,11.61
2018-03-02T02:59:53.439Z,11.61
2018-03-02T03:00:53.918Z,11.63
2018-03-02T03:01:54.376Z,11.63
2018-03-02T03:02:54.853Z,11.64
2018-03-02T03:03:55.323Z,11.66
2018-03-02T03:04:55.795Z,11.63
2018-03-02T03:05:56.267Z,11.61
2018-03-02T03:06:56.738Z,11.61
2018-03-02T03:07:57.254Z,11.62
2018-03-02T03:08:57.678Z,11.61
2018-03-02T03:09:58.199Z,11.62
2018-03-02T03:10:58.621Z,11.62
2018-03-02T03:11:59.090Z,11.61
2018-03-02T03:12:59.564Z,11.61
2018-03-02T03:14:00.027Z,11.62
2018-03-02T03:15:00.502Z,11.64
2018-03-02T03:16:00.973Z,11.61
2018-03-02T03:17:01.443Z,11.60
2018-03-02T03:19:02.387Z,11.59
2018-03-02T03:20:02.857Z,11.59
2018-03-02T03:21:03.333Z,11.60
2018-03-02T03:22:03.802Z,11.61
2018-03-02T03:23:04.270Z,11.63
2018-03-02T03:24:04.736Z,11.62
2018-03-02T03:25:05.210Z,11.61
2018-03-02T03:26:05.681Z,11.61
2018-03-02T03:27:06.152Z,11.62
2018-03-02T03:28:06.618Z,11.62
2018-03-02T03:29:07.094Z,11.63
2018-03-02T03:30:07.566Z,11.60
2018-03-02T03:31:08.041Z,11.60
2018-03-02T03:33:08.982Z,11.59
2018-03-02T03:34:09.449Z,11.60
2018-03-02T03:35:09.915Z,11.61
2018-03-02T03:36:10.390Z,11.64
2018-03-02T03:37:10.861Z,11.64
2018-03-02T03:38:11.331Z,11.63
2018-03-02T03:39:11.802Z,11.62
2018-03-02T03:40:12.272Z,11.64
2018-03-02T03:41:12.744Z,11.61
2018-03-02T03:42:13.214Z,11.62
2018-03-02T03:43:13.680Z,11.62
2018-03-02T03:44:14.157Z,11.64
2018-03-02T03:46:15.099Z,11.62
2018-03-02T03:47:15.573Z,11.61
2018-03-02T03:48:16.039Z,11.64
2018-03-02T03:49:16.509Z,11.62
2018-03-02T03:50:16.977Z,11.61
2018-03-02T03:51:17.488Z,11.62
2018-03-02T03:53:18.393Z,11.62
2018-03-02T03:54:18.859Z,11.58
2018-03-02T03:55:19.335Z,11.56
2018-03-02T03:56:19.804Z,11.55
2018-03-02T03:57:20.277Z,11.56
2018-03-02T03:58:20.748Z,11.57
2018-03-02T03:59:21.217Z,11.60
2018-03-02T04:00:21.743Z,11.61
2018-03-02T04:01:22.164Z,11.60
2018-03-02T04:02:22.833Z,11.60
2018-03-02T04:03:23.098Z,11.60
2018-03-02T04:04:23.571Z,11.57
2018-03-02T04:05:24.042Z,11.58
2018-03-02T04:06:24.513Z,11.58
2018-03-02T04:07:24.985Z,11.57
2018-03-02T04:08:25.454Z,11.55
2018-03-02T04:09:25.952Z,11.55
2018-03-02T04:10:26.447Z,11.56
2018-03-02T04:11:26.867Z,11.56
2018-03-02T04:12:27.342Z,11.57
2018-03-02T04:13:27.808Z,11.60
2018-03-02T04:14:28.280Z,11.61
2018-03-02T04:15:28.750Z,11.58
2018-03-02T04:16:29.220Z,11.60
2018-03-02T04:17:29.692Z,11.60
2018-03-02T04:19:30.634Z,11.61
2018-03-02T04:20:31.102Z,11.60
2018-03-02T04:21:31.575Z,11.59
2018-03-02T04:22:32.046Z,11.60
2018-03-02T04:23:32.522Z,11.59
2018-03-02T04:25:33.452Z,11.60
2018-03-02T04:26:33.929Z,11.60
2018-03-02T04:27:34.400Z,11.60
2018-03-02T04:28:34.871Z,11.59
2018-03-02T04:29:35.341Z,11.59
2018-03-02T04:30:35.813Z,11.59
2018-03-02T04:31:36.283Z,11.58
2018-03-02T04:32:36.753Z,11.56
2018-03-02T04:33:37.224Z,11.60
2018-03-02T04:34:37.689Z,11.58
2018-03-02T04:35:38.166Z,11.58
2018-03-02T04:36:38.636Z,11.57
2018-03-02T04:37:39.107Z,11.58
2018-03-02T04:38:39.578Z,11.58
2018-03-02T04:39:40.048Z,11.62
2018-03-02T04:40:40.724Z,11.60
2018-03-02T04:41:40.987Z,11.62
2018-03-02T04:42:41.460Z,11.60
2018-03-02T04:43:41.935Z,11.60
2018-03-02T04:45:42.873Z,11.58
2018-03-02T04:46:43.343Z,11.57
2018-03-02T04:47:43.859Z,11.58
2018-03-02T04:48:44.285Z,11.55
2018-03-02T04:49:44.757Z,11.57
2018-03-02T04:50:45.278Z,11.58
2018-03-02T04:51:45.698Z,11.58
2018-03-02T04:52:46.168Z,11.57
2018-03-02T04:53:46.636Z,11.60
2018-03-02T04:54:47.110Z,11.59
2018-03-02T04:55:47.582Z,11.59
2018-03-02T04:56:48.050Z,11.58
2018-03-02T04:57:48.522Z,11.61
2018-03-02T04:58:48.993Z,11.63
2018-03-02T04:59:49.465Z,11.63
2018-03-02T05:00:49.934Z,11.67
2018-03-02T05:01:50.404Z,11.65
2018-03-02T05:02:50.876Z,11.64
2018-03-02T05:03:51.346Z,11.63
2018-03-02T05:04:51.819Z,11.65
2018-03-02T05:05:52.288Z,11.66
2018-03-02T05:06:52.753Z,11.64
2018-03-02T05:07:53.228Z,11.65
2018-03-02T05:08:53.702Z,11.62
2018-03-02T05:09:54.174Z,11.59
2018-03-02T05:10:54.693Z,11.57
2018-03-02T05:11:55.116Z,11.61
2018-03-02T05:12:55.583Z,11.62
2018-03-02T05:14:56.525Z,11.63
2018-03-02T05:15:56.997Z,11.64
2018-03-02T05:16:57.466Z,11.65
2018-03-02T05:17:57.942Z,11.64
2018-03-02T05:18:58.409Z,11.60
2018-03-02T05:19:58.875Z,11.58
2018-03-02T05:20:59.350Z,11.59
2018-03-02T05:21:59.824Z,11.58
2018-03-02T05:23:00.292Z,11.57
2018-03-02T05:24:00.763Z,11.59
2018-03-02T05:25:01.235Z,11.59
2018-03-02T05:27:02.176Z,11.58
2018-03-02T05:28:02.646Z,11.59
2018-03-02T05:29:03.111Z,11.57
2018-03-02T05:30:03.587Z,11.57
2018-03-02T05:31:04.058Z,11.56
2018-03-02T05:32:04.529Z,11.56
2018-03-02T05:33:04.999Z,11.59
2018-03-02T05:34:05.471Z,11.58
2018-03-02T05:35:05.939Z,11.58
2018-03-02T05:36:06.449Z,11.58
2018-03-02T05:37:06.884Z,11.61
2018-03-02T05:38:07.355Z,11.62
2018-03-02T05:39:07.825Z,11.61
2018-03-02T05:40:08.298Z,11.61
2018-03-02T05:41:08.820Z,11.59
2018-03-02T05:42:09.236Z,11.60
2018-03-02T05:43:09.702Z,11.60
2018-03-02T05:44:10.177Z,11.60
2018-03-02T05:45:10.650Z,11.61
2018-03-02T05:46:11.120Z,11.62
2018-03-02T05:47:11.585Z,11.59
2018-03-02T05:48:12.062Z,11.60
2018-03-02T05:49:12.532Z,11.60
2018-03-02T05:50:13.003Z,11.58
2018-03-02T05:51:13.511Z,11.60
2018-03-02T05:52:13.945Z,11.58
2018-03-02T05:53:14.418Z,11.59
2018-03-02T05:54:14.888Z,11.59
2018-03-02T05:55:15.351Z,11.58
2018-03-02T05:56:15.878Z,11.59
2018-03-02T05:58:16.766Z,11.63
2018-03-02T05:59:17.239Z,11.64
2018-03-02T06:00:17.710Z,11.62
2018-03-02T06:01:18.179Z,11.61
2018-03-02T06:02:18.651Z,11.63
2018-03-02T06:03:19.125Z,11.60
2018-03-02T06:04:19.593Z,11.58
2018-03-02T06:05:20.065Z,11.59
2018-03-02T06:06:20.535Z,11.61
2018-03-02T06:07:21.007Z,11.62
2018-03-02T06:08:21.477Z,11.61
2018-03-02T06:09:21.947Z,11.64
2018-03-02T06:10:22.418Z,11.64
2018-03-02T06:11:22.884Z,11.64
2018-03-02T06:12:23.359Z,11.64
2018-03-02T06:13:23.830Z,11.64
2018-03-02T06:14:24.301Z,11.64
2018-03-02T06:15:24.767Z,11.62
2018-03-02T06:17:25.712Z,11.62
2018-03-02T06:19:26.655Z,11.64
2018-03-02T06:20:27.125Z,11.63
2018-03-02T06:21:27.647Z,11.60
2018-03-02T06:22:28.067Z,11.59
2018-03-02T06:23:28.538Z,11.56
2018-03-02T06:24:29.010Z,11.56
2018-03-02T06:25:29.478Z,11.57
2018-03-02T06:26:29.944Z,11.58
2018-03-02T06:27:30.421Z,11.56
2018-03-02T06:28:30.892Z,11.55
2018-03-02T06:29:31.364Z,11.57
2018-03-02T06:31:32.304Z,11.60
2018-03-02T06:32:32.775Z,11.62
2018-03-02T06:33:33.245Z,11.66
2018-03-02T06:34:33.718Z,11.64
2018-03-02T06:35:34.188Z,11.65
2018-03-02T06:36:34.659Z,11.67
2018-03-02T06:37:35.131Z,11.66
2018-03-02T06:38:35.600Z,11.68
2018-03-02T06:39:36.066Z,11.68
2018-03-02T06:40:36.541Z,11.72
2018-03-02T06:41:49.205Z,11.75
2018-03-02T06:42:37.484Z,11.78
2018-03-02T06:43:37.955Z,11.80
2018-03-02T06:44:38.426Z,11.80
2018-03-02T06:45:38.896Z,11.85
2018-03-02T06:46:39.417Z,11.88
2018-03-02T06:47:39.838Z,11.92
2018-03-02T06:48:40.313Z,11.96
2018-03-02T06:49:40.776Z,11.99
2018-03-02T06:52:42.243Z,12.11
2018-03-02T06:53:42.663Z,12.16
2018-03-02T06:54:43.135Z,12.18
2018-03-02T06:55:43.606Z,12.23
2018-03-02T06:56:44.077Z,12.28
2018-03-02T06:57:44.547Z,12.33
2018-03-02T06:58:45.020Z,12.39
2018-03-02T06:59:45.693Z,12.46
2018-03-02T07:00:45.962Z,12.52
2018-03-02T07:01:46.426Z,12.58
2018-03-02T07:02:46.903Z,12.62
2018-03-02T07:04:47.847Z,12.70
2018-03-02T07:05:48.316Z,12.75
2018-03-02T07:06:48.788Z,12.82
2018-03-02T07:07:49.260Z,12.87
2018-03-02T07:08:49.734Z,12.91
2018-03-02T07:09:50.199Z,12.95
2018-03-02T07:10:50.675Z,13.03
2018-03-02T07:11:51.148Z,13.10
2018-03-02T07:12:51.619Z,13.17
2018-03-02T07:13:52.090Z,13.23
2018-03-02T07:14:52.562Z,13.27
2018-03-02T07:15:53.034Z,13.34
2018-03-02T07:16:53.505Z,13.37
2018-03-02T07:17:54.028Z,13.43
2018-03-02T07:18:54.449Z,13.45
2018-03-02T07:19:54.923Z,13.49
2018-03-02T07:20:55.389Z,13.54
2018-03-02T07:21:55.865Z,13.58
2018-03-02T07:22:56.412Z,13.62
2018-03-02T07:23:56.810Z,13.65
2018-03-02T07:25:57.757Z,13.74
2018-03-02T07:27:58.900Z,13.82
2018-03-02T07:28:59.171Z,13.87
2018-03-02T07:29:59.638Z,13.91
2018-03-02T07:31:00.117Z,13.96
2018-03-02T07:32:00.595Z,13.99
2018-03-02T07:33:01.112Z,14.03
2018-03-02T07:34:01.550Z,14.07
2018-03-02T07:35:02.007Z,14.11
2018-03-02T07:36:02.480Z,14.14
2018-03-02T07:37:02.956Z,14.17
2018-03-02T07:38:03.479Z,14.21
2018-03-02T07:39:03.898Z,14.25
2018-03-02T07:40:04.373Z,14.30
2018-03-02T07:42:05.323Z,14.40
2018-03-02T07:43:05.788Z,14.45
2018-03-02T07:45:06.739Z,14.52
2018-03-02T07:46:07.212Z,14.56
2018-03-02T07:47:07.680Z,14.60
2018-03-02T07:49:08.628Z,14.68
2018-03-02T07:50:09.110Z,14.73
2018-03-02T07:51:09.585Z,14.77
2018-03-02T07:52:10.068Z,14.81
2018-03-02T07:53:10.537Z,14.85
2018-03-02T07:54:11.004Z,14.90
2018-03-02T07:55:11.471Z,14.94
2018-03-02T07:56:11.952Z,14.99
2018-03-02T07:58:12.900Z,15.05
2018-03-02T07:59:13.378Z,15.11
2018-03-02T08:00:13.850Z,15.13
2018-03-02T08:01:14.327Z,15.17
2018-03-02T08:02:14.797Z,15.21
2018-03-02T08:03:15.272Z,15.25
2018-03-02T08:04:15.755Z,15.29
2018-03-02T08:05:16.217Z,15.33
2018-03-02T08:07:17.172Z,15.36
2018-03-02T08:08:17.649Z,15.39
2018-03-02T08:09:18.125Z,15.42
2018-03-02T08:10:18.597Z,15.43
2018-03-02T08:11:19.074Z,15.47
2018-03-02T08:12:19.547Z,15.48
2018-03-02T08:13:20.017Z,15.50
2018-03-02T08:14:20.497Z,15.53
2018-03-02T08:15:20.975Z,15.56
2018-03-02T08:16:21.448Z,15.59
2018-03-02T08:17:21.928Z,15.61
2018-03-02T08:18:22.433Z,15.64
2018-03-02T08:19:22.920Z,15.64
2018-03-02T08:20:23.391Z,15.66
2018-03-02T08:21:23.825Z,15.70
2018-03-02T08:22:24.301Z,15.73
2018-03-02T08:23:24.772Z,15.75
2018-03-02T08:24:25.252Z,15.73
2018-03-02T08:25:25.731Z,15.68
2018-03-02T08:26:26.203Z,15.62
2018-03-02T08:27:26.674Z,15.52
2018-03-02T08:28:27.499Z,15.41
2018-03-02T08:29:27.633Z,15.29
2018-03-02T08:30:28.101Z,15.15
2018-03-02T08:31:28.584Z,15.01
2018-03-02T08:32:29.059Z,14.87
2018-03-02T08:33:29.533Z,14.73
2018-03-02T08:34:30.011Z,14.58
2018-03-02T08:35:30.477Z,14.42
2018-03-02T08:36:30.957Z,14.26
2018-03-02T08:37:31.427Z,14.10
2018-03-02T08:38:31.906Z,13.91
2018-03-02T08:40:32.855Z,13.55
2018-03-02T08:41:33.329Z,13.38
2018-03-02T08:42:33.796Z,13.23
2018-03-02T08:43:34.277Z,13.10
2018-03-02T08:44:34.749Z,12.96
2018-03-02T08:45:35.222Z,12.85
2018-03-02T08:46:35.696Z,12.76
2018-03-02T08:47:36.166Z,12.69
2018-03-02T08:48:36.640Z,12.61
2018-03-02T08:49:37.112Z,12.57
2018-03-02T08:50:37.583Z,12.55
2018-03-02T08:51:38.057Z,12.55
2018-03-02T08:52:38.529Z,12.57
2018-03-02T08:53:38.995Z,12.60
2018-03-02T08:54:39.523Z,12.64
2018-03-02T08:55:39.948Z,12.70
2018-03-02T08:57:40.891Z,12.86
2018-03-02T08:58:41.360Z,12.95
2018-03-02T09:00:42.303Z,13.18
2018-03-02T09:01:42.775Z,13.27
2018-03-02T09:02:43.248Z,13.36
2018-03-02T09:03:43.718Z,13.44
2018-03-02T09:04:44.186Z,13.55
2018-03-02T09:05:44.663Z,13.66
2018-03-02T09:06:45.473Z,13.76
2018-03-02T09:07:45.608Z,13.87
2018-03-02T09:08:46.080Z,13.98
2018-03-02T09:09:46.552Z,14.09
2018-03-02T09:10:47.025Z,14.17
2018-03-02T09:11:47.550Z,14.25
2018-03-02T09:12:47.970Z,14.33
2018-03-02T09:13:48.445Z,14.39
2018-03-02T09:14:48.915Z,14.47
2018-03-02T09:15:49.730Z,14.54
2018-03-02T09:16:49.862Z,14.60
2018-03-02T09:17:50.337Z,14.69
2018-03-02T09:18:50.809Z,14.77
2018-03-02T09:20:03.321Z,14.86
2018-03-02T09:20:51.757Z,14.94
2018-03-02T09:21:52.225Z,15.01
2018-03-02T09:22:52.908Z,15.07
2018-03-02T09:23:53.179Z,15.14
2018-03-02T09:24:53.697Z,15.18
2018-03-02T09:25:54.121Z,15.26
2018-03-02T09:26:54.602Z,15.31
2018-03-02T09:27:55.077Z,15.38
2018-03-02T09:28:55.550Z,15.44
2018-03-02T09:29:56.071Z,15.49
2018-03-02T09:30:56.499Z,15.54
2018-03-02T09:31:56.977Z,15.61
2018-03-02T09:32:57.450Z,15.67
2018-03-02T09:33:57.927Z,15.71
2018-03-02T09:34:58.452Z,15.77
2018-03-02T09:35:58.877Z,15.81
2018-03-02T09:36:59.352Z,15.86
2018-03-02T09:37:59.823Z,15.92
2018-03-02T09:39:00.304Z,15.96
2018-03-02T09:40:00.780Z,16.00
2018-03-02T09:41:01.255Z,16.00
2018-03-02T09:42:01.727Z,15.98
2018-03-02T09:43:02.206Z,15.94
2018-03-02T09:44:02.684Z,15.88
2018-03-02T09:45:03.160Z,15.80
2018-03-02T09:46:03.631Z,15.72
2018-03-02T09:47:04.112Z,15.63
2018-03-02T09:48:04.588Z,15.52
2018-03-02T09:50:05.541Z,15.24
2018-03-02T09:51:06.015Z,15.12
2018-03-02T09:52:06.493Z,14.99
2018-03-02T09:53:06.966Z,14.87
2018-03-02T09:54:07.442Z,14.74
2018-03-02T09:55:07.910Z,14.60
2018-03-02T09:56:08.391Z,14.46
2018-03-02T09:57:08.865Z,14.32
2018-03-02T09:58:09.342Z,14.15
2018-03-02T09:59:09.891Z,14.00
2018-03-02T10:00:10.288Z,13.86
2018-03-02T10:01:10.762Z,13.74
2018-03-02T10:02:11.237Z,13.63
2018-03-02T10:03:11.710Z,13.53
2018-03-02T10:04:12.178Z,13.43
2018-03-02T10:05:12.657Z,13.31
2018-03-02T10:07:13.603Z,13.14
2018-03-02T10:08:14.075Z,13.08
2018-03-02T10:09:14.548Z,13.02
2018-03-02T10:10:15.024Z,12.97
2018-03-02T10:11:15.491Z,12.95
2018-03-02T10:12:15.965Z,12.97
2018-03-02T10:13:16.437Z,13.00
2018-03-02T10:14:16.910Z,13.05
2018-03-02T10:15:17.377Z,13.11
2018-03-02T10:16:17.855Z,13.18
2018-03-02T10:17:18.346Z,13.25
2018-03-02T10:18:18.798Z,13.35
2018-03-02T10:19:19.264Z,13.45
2018-03-02T10:20:19.742Z,13.55
2018-03-02T10:21:20.215Z,13.66
2018-03-02T10:22:20.688Z,13.78
2018-03-02T10:23:21.166Z,13.89
2018-03-02T10:24:21.625Z,14.01
2018-03-02T10:25:22.103Z,14.13
2018-03-02T10:26:22.587Z,14.27
2018-03-02T10:27:23.049Z,14.39
2018-03-02T10:28:23.518Z,14.52
2018-03-02T10:29:23.995Z,14.64
2018-03-02T10:32:25.616Z,15.00
2018-03-02T10:33:25.929Z,15.08
2018-03-02T10:34:26.362Z,15.18
2018-03-02T10:35:26.884Z,15.29
2018-03-02T10:36:27.311Z,15.40
2018-03-02T10:37:28.124Z,15.51
2018-03-02T10:38:28.258Z,15.61
2018-03-02T10:39:28.727Z,15.72
2018-03-02T10:40:29.207Z,15.81
2018-03-02T10:42:30.158Z,16.01
2018-03-02T10:43:30.631Z,16.13
2018-03-02T10:44:31.106Z,16.22
2018-03-02T10:45:31.633Z,16.29
2018-03-02T10:46:32.057Z,16.37
2018-03-02T10:47:32.533Z,16.44
2018-03-02T10:48:33.009Z,16.49
2018-03-02T10:50:33.955Z,16.55
2018-03-02T10:52:34.913Z,16.53
2018-03-02T10:53:35.389Z,16.48
2018-03-02T10:54:35.868Z,16.43
2018-03-02T10:55:36.342Z,16.38
2018-03-02T10:56:36.817Z,16.32
2018-03-02T10:58:37.771Z,16.15
2018-03-02T10:59:38.243Z,16.05
2018-03-02T11:00:38.789Z,15.90
2018-03-02T11:01:39.203Z,15.77
2018-03-02T11:02:39.676Z,15.65
2018-03-02T11:03:40.147Z,15.55
2018-03-02T11:04:40.627Z,15.43
2018-03-02T11:05:41.155Z,15.28
2018-03-02T11:06:41.578Z,15.14
2018-03-02T11:07:42.048Z,15.02
2018-03-02T11:08:42.529Z,14.87
2018-03-02T11:09:43.002Z,14.74
2018-03-02T11:11:43.954Z,14.46
2018-03-02T11:12:44.428Z,14.33
2018-03-02T11:13:45.269Z,14.19
2018-03-02T11:14:45.376Z,14.05
2018-03-02T11:15:45.845Z,13.89
2018-03-02T11:16:46.324Z,13.74
2018-03-02T11:17:46.797Z,13.59
2018-03-02T11:18:47.271Z,13.45
2018-03-02T11:20:48.218Z,13.22
2018-03-02T11:21:48.690Z,13.12
2018-03-02T11:22:49.163Z,13.03
2018-03-02T11:23:49.635Z,12.97
2018-03-02T11:24:50.104Z,12.92
2018-03-02T11:26:02.414Z,12.89
2018-03-02T11:26:51.053Z,12.90
2018-03-02T11:27:51.524Z,12.93
2018-03-02T11:28:52.034Z,12.98
2018-03-02T11:29:52.507Z,13.05
2018-03-02T11:30:52.993Z,13.13
2018-03-02T11:31:53.407Z,13.24
2018-03-02T11:33:54.352Z,13.43
2018-03-02T11:34:54.830Z,13.52
2018-03-02T11:35:55.352Z,13.61
2018-03-02T11:36:55.773Z,13.71
2018-03-02T11:37:56.244Z,13.82
2018-03-02T11:38:56.721Z,13.93
2018-03-02T11:39:57.189Z,14.05
2018-03-02T11:40:57.714Z,14.17
2018-03-02T11:42:58.606Z,14.43
2018-03-02T11:43:59.082Z,14.56
2018-03-02T11:44:59.555Z,14.69
2018-03-02T11:46:00.079Z,14.78
2018-03-02T11:47:00.501Z,14.88
2018-03-02T11:48:00.976Z,14.96
2018-03-02T11:49:01.450Z,15.04
2018-03-02T11:50:01.923Z,15.12
2018-03-02T11:51:02.448Z,15.20
2018-03-02T11:52:02.872Z,15.26
2018-03-02T11:53:03.346Z,15.31
2018-03-02T11:54:03.821Z,15.38
2018-03-02T11:55:04.297Z,15.46
2018-03-02T11:56:04.822Z,15.52
2018-03-02T11:57:05.248Z,15.57
2018-03-02T11:58:05.719Z,15.62
2018-03-02T11:59:06.195Z,15.68
2018-03-02T12:00:06.668Z,15.74
2018-03-02T12:01:07.189Z,15.79
2018-03-02T12:02:07.624Z,15.82
2018-03-02T12:03:08.095Z,15.86
2018-03-02T12:04:08.573Z,15.89
2018-03-02T12:05:09.050Z,15.92
2018-03-02T12:06:09.523Z,15.93
2018-03-02T12:07:09.998Z,15.91
2018-03-02T12:08:10.468Z,15.86
2018-03-02T12:09:10.955Z,15.79
2018-03-02T12:10:11.428Z,15.69
2018-03-02T12:11:11.902Z,15.59
2018-03-02T12:12:12.379Z,15.47
2018-03-02T12:14:13.332Z,15.18
2018-03-02T12:15:13.805Z,15.01
2018-03-02T12:17:14.750Z,14.69
2018-03-02T12:18:15.232Z,14.53
2018-03-02T12:20:16.180Z,14.25
2018-03-02T12:21:16.660Z,14.12
2018-03-02T12:22:17.181Z,13.97
2018-03-02T12:23:17.604Z,13.83
2018-03-02T12:24:18.078Z,13.68
2018-03-02T12:25:18.891Z,13.53
2018-03-02T12:26:19.026Z,13.38
2018-03-02T12:27:19.499Z,13.23
2018-03-02T12:28:19.976Z,13.08
2018-03-02T12:30:20.919Z,12.82
2018-03-02T12:31:21.386Z,12.72
2018-03-02T12:32:21.916Z,12.64
2018-03-02T12:33:22.336Z,12.59
2018-03-02T12:34:22.810Z,12.54
2018-03-02T12:35:23.276Z,12.52
2018-03-02T12:36:23.752Z,12.52
2018-03-02T12:37:24.224Z,12.54
2018-03-02T12:38:24.696Z,12.57
2018-03-02T12:39:25.173Z,12.63
2018-03-02T12:40:25.640Z,12.70
2018-03-02T12:41:26.111Z,12.77
2018-03-02T12:42:26.583Z,12.84
2018-03-02T12:43:27.055Z,12.90
2018-03-02T12:44:27.591Z,13.00
2018-03-02T12:45:27.998Z,13.09
2018-03-02T12:46:28.464Z,13.18
2018-03-02T12:47:28.998Z,13.25
2018-03-02T12:48:29.411Z,13.31
2018-03-02T12:49:29.886Z,13.39
2018-03-02T12:50:30.357Z,13.47
2018-03-02T12:51:30.827Z,13.54
2018-03-02T12:52:31.350Z,13.63
2018-03-02T12:53:31.764Z,13.74
2018-03-02T12:54:32.284Z,13.84
2018-03-02T12:55:32.717Z,13.94
2018-03-02T12:56:33.186Z,14.04
2018-03-02T12:57:33.653Z,14.14
2018-03-02T12:58:34.134Z,14.24
2018-03-02T12:59:34.607Z,14.35
2018-03-02T13:00:35.087Z,14.45
2018-03-02T13:01:35.549Z,14.56
2018-03-02T13:02:36.073Z,14.68
2018-03-02T13:03:36.491Z,14.77
2018-03-02T13:05:37.446Z,14.93
2018-03-02T13:06:38.256Z,15.03
2018-03-02T13:07:38.435Z,15.11
2018-03-02T13:08:39.071Z,15.19
2018-03-02T13:09:39.337Z,15.29
2018-03-02T13:10:39.811Z,15.41
2018-03-02T13:11:40.285Z,15.50
2018-03-02T13:12:40.812Z,15.56
2018-03-02T13:13:41.233Z,15.64
2018-03-02T13:14:41.710Z,15.75
2018-03-02T13:15:42.191Z,15.84
2018-03-02T13:16:42.656Z,15.94
2018-03-02T13:17:43.131Z,16.02
2018-03-02T13:18:43.606Z,16.08
2018-03-02T13:19:44.082Z,16.18
2018-03-02T13:20:44.549Z,16.27
2018-03-02T13:21:45.031Z,16.36
2018-03-02T13:22:45.507Z,16.44
2018-03-02T13:23:45.981Z,16.51
2018-03-02T13:24:46.658Z,16.57
2018-03-02T13:25:46.931Z,16.62
2018-03-02T13:26:47.406Z,16.65
2018-03-02T13:27:47.882Z,16.63
2018-03-02T13:28:48.358Z,16.60
2018-03-02T13:29:48.832Z,16.53
2018-03-02T13:30:49.309Z,16.45
2018-03-02T13:31:49.785Z,16.36
2018-03-02T13:32:50.261Z,16.26
2018-03-02T13:33:50.736Z,16.14
2018-03-02T13:34:51.253Z,16.02
2018-03-02T13:35:51.685Z,15.88
2018-03-02T13:36:52.160Z,15.74
2018-03-02T13:37:52.686Z,15.60
2018-03-02T13:38:53.110Z,15.45
2018-03-02T13:39:53.583Z,15.30
2018-03-02T13:42:55.058Z,14.85
2018-03-02T13:43:55.478Z,14.72
2018-03-02T13:44:55.956Z,14.58
2018-03-02T13:45:56.430Z,14.42
2018-03-02T13:46:56.902Z,14.27
2018-03-02T13:47:57.370Z,14.14
2018-03-02T13:48:57.857Z,14.02
2018-03-02T13:50:58.788Z,13.82
2018-03-02T13:51:59.264Z,13.76